Station Historical Data
Daily Summary for December 24, 2017 Units:  English    Metric   Both
« Previous Day
Next Day »
Daily Weekly Monthly Yearly Custom
  High: Low: Average:
Temperature: 31.6 °F 23.4 °F 27.3 °F
Dew Point: 24.9 °F 19.3 °F 22.9 °F
Humidity: 89% 72% 84%
Wind Speed: 9.0mph 0.0mph 2.4mph
Wind Gust: 14.0mph - -
Wind- - SE
Pressure: 30.28 in 29.67 in -
Precipitation: 0.00 in    
Historical Graphs
 
 
Tabular Data for December 24, 2017
Time Temperature Dew Point Pressure Wind Wind Speed Wind Gust Humidity Rainfall Rate (Hourly)
00:04 26.8 °F 24.0 °F 30.15 in WSW 2.0 mph 4.0 mph 89% 0.00 in
00:09 26.8 °F 23.7 °F 30.16 in WSW 1.0 mph 3.0 mph 88% 0.00 in
00:14 26.9 °F 23.8 °F 30.16 in WSW 3.0 mph 5.0 mph 88% 0.00 in
00:19 27.1 °F 24.0 °F 30.17 in WSW 2.0 mph 5.0 mph 88% 0.00 in
00:24 27.2 °F 24.4 °F 30.17 in WSW 2.0 mph 5.0 mph 89% 0.00 in
00:29 27.3 °F 24.5 °F 30.17 in West 1.0 mph 5.0 mph 89% 0.00 in
00:34 27.4 °F 24.6 °F 30.17 in West 2.0 mph 5.0 mph 89% 0.00 in
00:39 27.5 °F 24.7 °F 30.17 in West 2.0 mph 5.0 mph 89% 0.00 in
00:44 27.6 °F 24.5 °F 30.17 in WNW 4.0 mph 4.0 mph 88% 0.00 in
00:49 27.6 °F 24.5 °F 30.17 in West 5.0 mph 6.0 mph 88% 0.00 in
00:54 27.6 °F 24.5 °F 30.17 in West 1.0 mph 5.0 mph 88% 0.00 in
00:59 27.6 °F 24.5 °F 30.18 in West 2.0 mph 6.0 mph 88% 0.00 in
01:05 27.6 °F 24.5 °F 30.17 in WNW 2.0 mph 4.0 mph 88% 0.00 in
01:10 27.6 °F 24.5 °F 30.17 in WNW 3.0 mph 4.0 mph 88% 0.00 in
01:15 27.6 °F 24.5 °F 30.17 in West 1.0 mph 4.0 mph 88% 0.00 in
01:20 27.6 °F 24.5 °F 30.17 in West 2.0 mph 6.0 mph 88% 0.00 in
01:25 27.6 °F 24.5 °F 30.18 in West 2.0 mph 6.0 mph 88% 0.00 in
01:30 27.5 °F 24.1 °F 30.17 in West 1.0 mph 3.0 mph 87% 0.00 in
01:35 27.5 °F 24.1 °F 30.18 in West 2.0 mph 4.0 mph 87% 0.00 in
01:40 27.5 °F 24.1 °F 30.18 in West 1.0 mph 3.0 mph 87% 0.00 in
01:45 27.6 °F 24.2 °F 30.18 in West 2.0 mph 3.0 mph 87% 0.00 in
01:50 27.5 °F 24.1 °F 30.18 in West 1.0 mph 4.0 mph 87% 0.00 in
01:55 27.5 °F 24.1 °F 30.18 in West 2.0 mph 4.0 mph 87% 0.00 in
02:00 27.5 °F 24.1 °F 30.18 in West 2.0 mph 5.0 mph 87% 0.00 in
02:05 27.5 °F 24.1 °F 30.18 in West 2.0 mph 5.0 mph 87% 0.00 in
02:10 27.6 °F 24.2 °F 30.18 in WSW 2.0 mph 4.0 mph 87% 0.00 in
02:15 27.6 °F 24.2 °F 30.19 in WSW 2.0 mph 6.0 mph 87% 0.00 in
02:20 27.5 °F 24.1 °F 30.19 in WSW 1.0 mph 3.0 mph 87% 0.00 in
02:25 27.6 °F 24.2 °F 30.19 in WSW 1.0 mph 3.0 mph 87% 0.00 in
02:30 27.6 °F 24.2 °F 30.19 in WSW 2.0 mph 3.0 mph 87% 0.00 in
02:35 27.5 °F 24.1 °F 30.19 in Calm   3.0 mph 87% 0.00 in
02:40 27.4 °F 23.8 °F 30.19 in West 2.0 mph 4.0 mph 86% 0.00 in
02:45 27.2 °F 23.6 °F 30.19 in West 1.0 mph 3.0 mph 86% 0.00 in
02:50 27.2 °F 23.6 °F 30.20 in West 1.0 mph 3.0 mph 86% 0.00 in
02:55 27.0 °F 23.4 °F 30.20 in West 1.0 mph 3.0 mph 86% 0.00 in
03:00 26.8 °F 22.9 °F 30.20 in West 2.0 mph 4.0 mph 85% 0.00 in
03:05 26.6 °F 22.7 °F 30.20 in West 2.0 mph 4.0 mph 85% 0.00 in
03:10 26.4 °F 22.5 °F 30.21 in West 1.0 mph 4.0 mph 85% 0.00 in
03:15 26.3 °F 22.4 °F 30.21 in West 1.0 mph 4.0 mph 85% 0.00 in
03:20 26.2 °F 22.3 °F 30.21 in West 2.0 mph 4.0 mph 85% 0.00 in
03:25 26.1 °F 22.2 °F 30.21 in West 3.0 mph 3.0 mph 85% 0.00 in
03:30 25.9 °F 22.0 °F 30.21 in West 1.0 mph 3.0 mph 85% 0.00 in
03:35 25.9 °F 22.0 °F 30.20 in West 1.0 mph 2.0 mph 85% 0.00 in
03:40 25.7 °F 21.8 °F 30.20 in West 1.0 mph 3.0 mph 85% 0.00 in
03:45 25.6 °F 21.7 °F 30.21 in West 2.0 mph 5.0 mph 85% 0.00 in
03:50 25.6 °F 21.7 °F 30.21 in WNW 2.0 mph 5.0 mph 85% 0.00 in
03:55 25.5 °F 21.6 °F 30.21 in Calm   4.0 mph 85% 0.00 in
04:00 25.4 °F 21.5 °F 30.21 in WNW 3.0 mph 3.0 mph 85% 0.00 in
04:05 25.3 °F 21.4 °F 30.22 in WNW 1.0 mph 2.0 mph 85% 0.00 in
04:10 25.1 °F 20.9 °F 30.22 in WNW 1.0 mph 3.0 mph 84% 0.00 in
04:15 25.0 °F 20.8 °F 30.23 in WNW 2.0 mph 5.0 mph 84% 0.00 in
04:20 24.8 °F 20.7 °F 30.24 in WNW 2.0 mph 5.0 mph 84% 0.00 in
04:25 24.7 °F 20.6 °F 30.24 in WNW 3.0 mph 5.0 mph 84% 0.00 in
04:30 24.6 °F 20.7 °F 30.24 in WNW 2.0 mph 4.0 mph 85% 0.00 in
04:35 24.6 °F 20.7 °F 30.24 in WNW 2.0 mph 4.0 mph 85% 0.00 in
04:40 24.5 °F 20.6 °F 30.24 in WNW 2.0 mph 3.0 mph 85% 0.00 in
04:45 24.4 °F 20.5 °F 30.24 in WNW 2.0 mph 3.0 mph 85% 0.00 in
04:50 24.5 °F 20.6 °F 30.24 in WNW 2.0 mph 4.0 mph 85% 0.00 in
04:55 24.4 °F 20.5 °F 30.25 in WNW 1.0 mph 4.0 mph 85% 0.00 in
05:00 24.5 °F 20.6 °F 30.25 in West 2.0 mph 5.0 mph 85% 0.00 in
05:05 24.5 °F 20.6 °F 30.25 in WNW 2.0 mph 5.0 mph 85% 0.00 in
05:10 24.5 °F 20.6 °F 30.25 in WNW 1.0 mph 5.0 mph 85% 0.00 in
05:15 24.5 °F 20.6 °F 30.25 in West 1.0 mph 5.0 mph 85% 0.00 in
05:20 24.4 °F 20.5 °F 30.25 in WNW 2.0 mph 5.0 mph 85% 0.00 in
05:25 24.3 °F 20.4 °F 30.25 in WNW 2.0 mph 5.0 mph 85% 0.00 in
05:30 24.2 °F 20.3 °F 30.25 in WNW 2.0 mph 5.0 mph 85% 0.00 in
05:35 24.2 °F 20.3 °F 30.25 in West 1.0 mph 3.0 mph 85% 0.00 in
05:40 24.1 °F 20.2 °F 30.25 in West 1.0 mph 2.0 mph 85% 0.00 in
05:45 24.0 °F 20.1 °F 30.25 in West 1.0 mph 4.0 mph 85% 0.00 in
05:50 23.9 °F 19.8 °F 30.25 in West 1.0 mph 4.0 mph 84% 0.00 in
05:55 23.8 °F 19.7 °F 30.25 in West 2.0 mph 3.0 mph 84% 0.00 in
06:00 23.7 °F 19.6 °F 30.25 in West 2.0 mph 3.0 mph 84% 0.00 in
06:05 23.7 °F 19.6 °F 30.25 in WNW 2.0 mph 4.0 mph 84% 0.00 in
06:10 23.7 °F 19.6 °F 30.25 in WNW 2.0 mph 4.0 mph 84% 0.00 in
06:15 23.6 °F 19.5 °F 30.25 in Calm   4.0 mph 84% 0.00 in
06:20 23.6 °F 19.5 °F 30.25 in NW 2.0 mph 4.0 mph 84% 0.00 in
06:25 23.6 °F 19.5 °F 30.26 in NW 2.0 mph 4.0 mph 84% 0.00 in
06:30 23.5 °F 19.4 °F 30.26 in NW 1.0 mph 3.0 mph 84% 0.00 in
06:40 23.4 °F 19.3 °F 30.26 in Calm   2.0 mph 84% 0.00 in
06:45 23.4 °F 19.3 °F 30.26 in WNW 1.0 mph 3.0 mph 84% 0.00 in
06:50 23.4 °F 19.6 °F 30.26 in WNW 2.0 mph 4.0 mph 85% 0.00 in
06:55 23.5 °F 19.7 °F 30.27 in WNW 1.0 mph 3.0 mph 85% 0.00 in
07:00 23.6 °F 19.8 °F 30.27 in WNW 1.0 mph 3.0 mph 85% 0.00 in
07:10 23.7 °F 19.9 °F 30.28 in WNW 2.0 mph 4.0 mph 85% 0.00 in
07:15 23.7 °F 19.9 °F 30.28 in WNW 1.0 mph 4.0 mph 85% 0.00 in
07:19 23.8 °F 19.9 °F 30.28 in WNW 1.0 mph 2.0 mph 85% 0.00 in
07:25 23.8 °F 19.9 °F 30.27 in Calm   3.0 mph 85% 0.00 in
07:30 23.8 °F 19.9 °F 30.27 in WNW 1.0 mph 3.0 mph 85% 0.00 in
07:35 23.9 °F 19.8 °F 30.27 in Calm   2.0 mph 84% 0.00 in
07:39 23.9 °F 19.8 °F 30.27 in Calm   2.0 mph 84% 0.00 in
07:45 24.0 °F 19.9 °F 30.27 in WNW 1.0 mph 1.0 mph 84% 0.00 in
07:50 23.9 °F 19.8 °F 30.27 in WNW 1.0 mph 2.0 mph 84% 0.00 in
07:55 23.9 °F 20.0 °F 30.27 in Calm   2.0 mph 85% 0.00 in
08:00 23.9 °F 20.0 °F 30.26 in Calm     85% 0.00 in
08:05 23.9 °F 20.0 °F 30.27 in Calm   1.0 mph 85% 0.00 in
08:10 23.9 °F 20.0 °F 30.26 in Calm   1.0 mph 85% 0.00 in
08:15 23.8 °F 19.9 °F 30.26 in Calm     85% 0.00 in
08:20 23.8 °F 19.9 °F 30.26 in Calm     85% 0.00 in
08:25 23.8 °F 19.9 °F 30.27 in Calm     85% 0.00 in
08:30 23.8 °F 19.9 °F 30.27 in Calm     85% 0.00 in
08:35 23.7 °F 19.9 °F 30.27 in Calm     85% 0.00 in
08:40 23.7 °F 19.6 °F 30.27 in Calm     84% 0.00 in
08:44 23.7 °F 19.9 °F 30.27 in Calm   1.0 mph 85% 0.00 in
08:50 23.7 °F 19.9 °F 30.27 in Calm   1.0 mph 85% 0.00 in
08:55 23.9 °F 20.0 °F 30.27 in Calm     85% 0.00 in
09:00 24.0 °F 20.1 °F 30.28 in Calm     85% 0.00 in
09:05 24.1 °F 20.2 °F 30.28 in Calm     85% 0.00 in
09:10 24.3 °F 20.4 °F 30.28 in Calm     85% 0.00 in
09:15 24.4 °F 20.5 °F 30.28 in Calm     85% 0.00 in
09:20 24.6 °F 20.7 °F 30.28 in Calm     85% 0.00 in
09:30 25.0 °F 21.1 °F 30.28 in Calm     85% 0.00 in
09:35 25.2 °F 21.3 °F 30.28 in Calm     85% 0.00 in
09:40 25.4 °F 21.5 °F 30.28 in Calm     85% 0.00 in
09:45 25.5 °F 21.6 °F 30.28 in Calm     85% 0.00 in
09:50 25.8 °F 21.9 °F 30.28 in Calm     85% 0.00 in
10:00 26.3 °F 22.4 °F 30.28 in Calm     85% 0.00 in
10:05 26.5 °F 22.6 °F 30.28 in West 2.0 mph 2.0 mph 85% 0.00 in
10:10 26.8 °F 22.9 °F 30.28 in Calm   2.0 mph 85% 0.00 in
10:15 27.1 °F 23.2 °F 30.28 in Calm   2.0 mph 85% 0.00 in
10:20 27.4 °F 23.5 °F 30.28 in Calm   2.0 mph 85% 0.00 in
10:24 27.7 °F 23.8 °F 30.27 in Calm   2.0 mph 85% 0.00 in
10:29 28.1 °F 23.9 °F 30.27 in Calm     84% 0.00 in
10:34 28.5 °F 24.3 °F 30.26 in Calm     84% 0.00 in
10:40 28.9 °F 24.7 °F 30.26 in Calm     84% 0.00 in
10:45 29.3 °F 23.9 °F 30.26 in Calm   1.0 mph 80% 0.00 in
10:50 29.3 °F 23.3 °F 30.26 in Calm     78% 0.00 in
10:55 29.3 °F 23.0 °F 30.26 in Calm     77% 0.00 in
11:00 29.3 °F 23.0 °F 30.26 in Calm   1.0 mph 77% 0.00 in
11:05 29.3 °F 22.7 °F 30.25 in Calm   2.0 mph 76% 0.00 in
11:10 29.6 °F 22.6 °F 30.25 in Calm     75% 0.00 in
11:15 30.1 °F 22.8 °F 30.25 in Calm     74% 0.00 in
11:20 30.3 °F 23.0 °F 30.24 in Calm   1.0 mph 74% 0.00 in
11:25 30.6 °F 23.3 °F 30.23 in Calm   1.0 mph 74% 0.00 in
11:30 30.8 °F 23.5 °F 30.23 in Calm   2.0 mph 74% 0.00 in
11:35 30.8 °F 22.8 °F 30.22 in Calm   2.0 mph 72% 0.00 in
11:40 29.7 °F 22.1 °F 30.22 in Calm   2.0 mph 73% 0.00 in
11:45 29.2 °F 22.6 °F 30.22 in ESE 1.0 mph 2.0 mph 76% 0.00 in
11:50 29.2 °F 22.6 °F 30.21 in Calm   2.0 mph 76% 0.00 in
11:55 29.2 °F 22.6 °F 30.21 in Calm   2.0 mph 76% 0.00 in
11:59 29.2 °F 22.6 °F 30.20 in Calm     76% 0.00 in
12:04 29.5 °F 23.2 °F 30.20 in Calm     77% 0.00 in
12:09 29.6 °F 23.0 °F 30.19 in Calm     76% 0.00 in
12:14 29.7 °F 23.1 °F 30.19 in East 1.0 mph 5.0 mph 76% 0.00 in
12:19 29.7 °F 23.1 °F 30.18 in ENE 1.0 mph 3.0 mph 76% 0.00 in
12:25 29.6 °F 23.0 °F 30.17 in East 3.0 mph 6.0 mph 76% 0.00 in
12:30 29.6 °F 23.0 °F 30.17 in ENE 1.0 mph 5.0 mph 76% 0.00 in
12:35 29.5 °F 23.2 °F 30.17 in East 2.0 mph 5.0 mph 77% 0.00 in
12:40 29.6 °F 23.3 °F 30.16 in ENE 2.0 mph 5.0 mph 77% 0.00 in
12:45 29.4 °F 23.1 °F 30.15 in East 5.0 mph 7.0 mph 77% 0.00 in
12:55 30.0 °F 23.7 °F 30.15 in ENE 2.0 mph 5.0 mph 77% 0.00 in
13:00 29.8 °F 23.5 °F 30.15 in ENE 2.0 mph 5.0 mph 77% 0.01 in
13:05 30.0 °F 23.7 °F 30.14 in East 2.0 mph 5.0 mph 77% 0.01 in
13:09 30.2 °F 23.9 °F 30.14 in East 1.0 mph 5.0 mph 77% 0.01 in
13:14 30.4 °F 24.1 °F 30.14 in Calm   5.0 mph 77% 0.01 in
13:15 30.4 °F 24.1 °F 30.14 in East 2.0 mph 5.0 mph 77% 0.01 in
13:19 30.5 °F 23.8 °F 30.13 in ENE 2.0 mph 6.0 mph 76% 0.01 in
13:24 30.5 °F 23.8 °F 30.13 in ENE 1.0 mph 3.0 mph 76% 0.01 in
13:29 30.6 °F 24.2 °F 30.13 in Calm   3.0 mph 77% 0.02 in
13:34 30.7 °F 24.3 °F 30.12 in ENE 1.0 mph 4.0 mph 77% 0.02 in
13:39 30.9 °F 24.5 °F 30.13 in ENE 2.0 mph 5.0 mph 77% 0.02 in
13:45 31.1 °F 24.4 °F 30.12 in East 2.0 mph 7.0 mph 76% 0.02 in
13:50 31.3 °F 24.9 °F 30.12 in East 2.0 mph 7.0 mph 77% 0.03 in
13:55 31.5 °F 24.8 °F 30.11 in East 2.0 mph 6.0 mph 76% 0.03 in
14:00 31.6 °F 24.9 °F 30.11 in East 1.0 mph 6.0 mph 76% 0.02 in
14:10 31.5 °F 24.8 °F 30.10 in NE 1.0 mph 5.0 mph 76% 0.03 in
14:14 31.5 °F 24.8 °F 30.10 in ENE 2.0 mph 5.0 mph 76% 0.03 in
14:20 31.4 °F 24.7 °F 30.10 in East 2.0 mph 5.0 mph 76% 0.03 in
14:29 31.3 °F 24.6 °F 30.09 in East 2.0 mph 8.0 mph 76% 0.03 in
14:35 31.2 °F 24.5 °F 30.10 in East 2.0 mph 7.0 mph 76% 0.03 in
14:40 31.3 °F 24.6 °F 30.10 in East 1.0 mph 5.0 mph 76% 0.03 in
14:44 31.2 °F 24.5 °F 30.10 in East 3.0 mph 5.0 mph 76% 0.03 in
14:49 31.3 °F 24.6 °F 30.10 in ENE 2.0 mph 4.0 mph 76% 0.02 in
14:54 31.1 °F 24.4 °F 30.10 in East 5.0 mph 5.0 mph 76% 0.03 in
14:59 31.0 °F 24.3 °F 30.10 in Calm   9.0 mph 76% 0.03 in
15:04 30.8 °F 24.1 °F 30.10 in East 1.0 mph 6.0 mph 76% 0.03 in
15:09 30.6 °F 23.9 °F 30.10 in ENE 2.0 mph 7.0 mph 76% 0.02 in
15:15 30.4 °F 24.1 °F 30.10 in ENE 2.0 mph 7.0 mph 77% 0.02 in
15:19 30.3 °F 24.0 °F 30.09 in ENE 1.0 mph 4.0 mph 77% 0.02 in
15:24 30.1 °F 23.8 °F 30.09 in ENE 2.0 mph 4.0 mph 77% 0.02 in
15:29 29.9 °F 23.6 °F 30.09 in ENE 2.0 mph 7.0 mph 77% 0.01 in
15:34 29.8 °F 23.8 °F 30.08 in ENE 3.0 mph 7.0 mph 78% 0.01 in
15:39 29.6 °F 23.6 °F 30.08 in ENE 1.0 mph 4.0 mph 78% 0.01 in
15:45 29.6 °F 23.9 °F 30.08 in ENE 1.0 mph 5.0 mph 79% 0.01 in
15:49 29.5 °F 23.8 °F 30.08 in East 6.0 mph 9.0 mph 79% 0.01 in
15:54 29.4 °F 24.0 °F 30.08 in ENE 4.0 mph 7.0 mph 80% 0.00 in
15:59 29.3 °F 23.9 °F 30.07 in NE 3.0 mph 7.0 mph 80% 0.00 in
16:04 29.2 °F 23.8 °F 30.07 in NE 3.0 mph 6.0 mph 80% 0.00 in
16:09 29.1 °F 24.0 °F 30.07 in NE 4.0 mph 9.0 mph 81% 0.00 in
16:15 29.1 °F 24.0 °F 30.06 in NE 3.0 mph 9.0 mph 81% 0.00 in
16:20 29.0 °F 23.9 °F 30.06 in NE 3.0 mph 6.0 mph 81% 0.01 in
16:24 29.0 °F 24.2 °F 30.06 in NE 3.0 mph 6.0 mph 82% 0.01 in
16:29 28.9 °F 24.1 °F 30.05 in NE 3.0 mph 9.0 mph 82% 0.01 in
16:34 28.8 °F 24.0 °F 30.05 in NNE 4.0 mph 7.0 mph 82% 0.01 in
16:39 28.8 °F 24.3 °F 30.04 in NNE 3.0 mph 7.0 mph 83% 0.01 in
16:44 28.6 °F 24.1 °F 30.05 in NE 4.0 mph 7.0 mph 83% 0.01 in
16:49 28.5 °F 24.0 °F 30.05 in NE 6.0 mph 8.0 mph 83% 0.01 in
16:50 28.5 °F 24.0 °F 30.05 in NE 3.0 mph 8.0 mph 83% 0.01 in
16:54 28.4 °F 23.9 °F 30.05 in NE 3.0 mph 8.0 mph 83% 0.01 in
16:55 28.4 °F 23.9 °F 30.05 in NE 4.0 mph 8.0 mph 83% 0.01 in
17:04 28.2 °F 24.0 °F 30.04 in NE 5.0 mph 13.0 mph 84% 0.01 in
17:09 28.1 °F 23.9 °F 30.05 in NE 5.0 mph 9.0 mph 84% 0.01 in
17:14 28.0 °F 23.8 °F 30.04 in NE 5.0 mph 9.0 mph 84% 0.01 in
17:20 28.0 °F 23.8 °F 30.04 in NE 4.0 mph 9.0 mph 84% 0.00 in
17:25 27.9 °F 24.0 °F 30.04 in NE 4.0 mph 8.0 mph 85% 0.00 in
17:30 27.8 °F 23.9 °F 30.04 in NE 4.0 mph 8.0 mph 85% 0.00 in
17:34 27.8 °F 23.9 °F 30.04 in ENE 4.0 mph 6.0 mph 85% 0.00 in
17:39 27.7 °F 23.8 °F 30.03 in NE 3.0 mph 8.0 mph 85% 0.00 in
17:44 27.7 °F 23.8 °F 30.02 in NE 4.0 mph 8.0 mph 85% 0.00 in
17:49 27.6 °F 23.7 °F 30.02 in ENE 5.0 mph 8.0 mph 85% 0.00 in
17:54 27.6 °F 23.7 °F 30.02 in NE 8.0 mph 8.0 mph 85% 0.00 in
17:59 27.5 °F 23.6 °F 30.01 in NE 4.0 mph 9.0 mph 85% 0.00 in
18:05 27.4 °F 23.5 °F 30.00 in NE 6.0 mph 11.0 mph 85% 0.00 in
18:10 27.4 °F 23.5 °F 30.00 in NE 2.0 mph 10.0 mph 85% 0.00 in
18:14 27.4 °F 23.5 °F 29.99 in NE 5.0 mph 11.0 mph 85% 0.00 in
18:19 27.3 °F 23.4 °F 29.99 in NE 6.0 mph 12.0 mph 85% 0.00 in
18:20 27.3 °F 23.4 °F 29.99 in NE 9.0 mph 12.0 mph 85% 0.00 in
18:24 27.3 °F 23.4 °F 29.98 in NE 6.0 mph 12.0 mph 85% 0.00 in
18:30 27.2 °F 23.3 °F 29.97 in NE 6.0 mph 12.0 mph 85% 0.00 in
18:34 27.2 °F 23.6 °F 29.96 in NE 6.0 mph 13.0 mph 86% 0.00 in
18:39 27.2 °F 23.6 °F 29.96 in NE 8.0 mph 10.0 mph 86% 0.00 in
18:44 27.2 °F 23.6 °F 29.95 in NE 6.0 mph 14.0 mph 86% 0.00 in
18:49 27.2 °F 23.6 °F 29.95 in NE 6.0 mph 14.0 mph 86% 0.00 in
18:54 27.3 °F 23.7 °F 29.95 in NE 6.0 mph 13.0 mph 86% 0.00 in
19:00 27.3 °F 23.7 °F 29.95 in NE 8.0 mph 12.0 mph 86% 0.00 in
19:05 27.3 °F 23.7 °F 29.95 in NE 6.0 mph 10.0 mph 86% 0.00 in
19:09 27.3 °F 23.7 °F 29.95 in NE 6.0 mph 12.0 mph 86% 0.00 in
19:15 27.3 °F 23.7 °F 29.95 in NE 6.0 mph 12.0 mph 86% 0.00 in
19:24 27.2 °F 23.6 °F 29.94 in NE 7.0 mph 9.0 mph 86% 0.00 in
19:29 27.2 °F 23.6 °F 29.94 in NE 7.0 mph 10.0 mph 86% 0.00 in
19:34 27.2 °F 23.6 °F 29.93 in NE 7.0 mph 9.0 mph 86% 0.00 in
19:39 27.2 °F 23.8 °F 29.93 in ENE 3.0 mph 9.0 mph 87% 0.00 in
19:44 27.2 °F 23.8 °F 29.93 in NE 2.0 mph 8.0 mph 87% 0.00 in
19:49 27.2 °F 23.8 °F 29.92 in ENE 7.0 mph 9.0 mph 87% 0.00 in
19:54 27.2 °F 23.8 °F 29.92 in NE 4.0 mph 9.0 mph 87% 0.00 in
19:59 27.2 °F 23.8 °F 29.92 in NE 4.0 mph 9.0 mph 87% 0.00 in
20:04 27.1 °F 23.7 °F 29.91 in NE 4.0 mph 9.0 mph 87% 0.00 in
20:09 27.2 °F 23.8 °F 29.90 in NE 5.0 mph 9.0 mph 87% 0.00 in
20:15 27.1 °F 23.7 °F 29.90 in ENE 5.0 mph 10.0 mph 87% 0.00 in
20:24 27.2 °F 23.8 °F 29.88 in NE 3.0 mph 8.0 mph 87% 0.00 in
20:29 27.2 °F 23.8 °F 29.88 in NE 4.0 mph 9.0 mph 87% 0.00 in
20:34 27.2 °F 23.8 °F 29.87 in NE 5.0 mph 10.0 mph 87% 0.00 in
20:39 27.2 °F 23.8 °F 29.87 in NE 5.0 mph 10.0 mph 87% 0.00 in
20:44 27.2 °F 23.8 °F 29.86 in NE 4.0 mph 10.0 mph 87% 0.00 in
20:49 27.3 °F 23.9 °F 29.86 in NE 8.0 mph 11.0 mph 87% 0.00 in
20:54 27.4 °F 24.0 °F 29.85 in NE 5.0 mph 9.0 mph 87% 0.00 in
20:59 27.4 °F 24.0 °F 29.85 in NE 4.0 mph 10.0 mph 87% 0.00 in
21:04 27.5 °F 24.1 °F 29.85 in ENE 9.0 mph 9.0 mph 87% 0.00 in
21:09 27.5 °F 24.1 °F 29.84 in NE 5.0 mph 10.0 mph 87% 0.00 in
21:14 27.5 °F 24.1 °F 29.84 in NE 4.0 mph 10.0 mph 87% 0.00 in
21:19 27.6 °F 24.2 °F 29.83 in NE 5.0 mph 10.0 mph 87% 0.00 in
21:24 27.6 °F 24.2 °F 29.82 in NE 7.0 mph 11.0 mph 87% 0.00 in
21:34 27.6 °F 24.2 °F 29.81 in NE 5.0 mph 10.0 mph 87% 0.00 in
21:40 27.6 °F 24.2 °F 29.81 in NE 5.0 mph 10.0 mph 87% 0.00 in
21:44 27.7 °F 24.3 °F 29.80 in NE 4.0 mph 10.0 mph 87% 0.00 in
21:49 27.7 °F 24.3 °F 29.80 in NE 6.0 mph 10.0 mph 87% 0.00 in
21:50 27.7 °F 24.3 °F 29.80 in NE 4.0 mph 10.0 mph 87% 0.00 in
21:59 27.7 °F 24.3 °F 29.78 in NE 5.0 mph 8.0 mph 87% 0.00 in
22:04 27.7 °F 24.3 °F 29.78 in NE 5.0 mph 11.0 mph 87% 0.00 in
22:09 27.7 °F 24.6 °F 29.77 in NE 5.0 mph 11.0 mph 88% 0.00 in
22:19 27.6 °F 24.5 °F 29.76 in NE 4.0 mph 10.0 mph 88% 0.00 in
22:24 27.6 °F 24.5 °F 29.76 in NE 4.0 mph 9.0 mph 88% 0.00 in
22:29 27.5 °F 24.4 °F 29.76 in NE 4.0 mph 9.0 mph 88% 0.00 in
22:34 27.5 °F 24.4 °F 29.75 in NE 6.0 mph 10.0 mph 88% 0.00 in
22:39 27.4 °F 24.3 °F 29.74 in NNE 4.0 mph 9.0 mph 88% 0.00 in
22:44 27.4 °F 24.3 °F 29.74 in NE 4.0 mph 10.0 mph 88% 0.00 in
22:49 27.4 °F 24.3 °F 29.73 in NE 4.0 mph 10.0 mph 88% 0.00 in
22:54 27.4 °F 24.3 °F 29.73 in NE 3.0 mph 9.0 mph 88% 0.00 in
22:59 27.4 °F 24.3 °F 29.72 in ENE 2.0 mph 6.0 mph 88% 0.00 in
23:04 27.4 °F 24.3 °F 29.72 in NE 2.0 mph 7.0 mph 88% 0.00 in
23:09 27.4 °F 24.3 °F 29.71 in NE 3.0 mph 9.0 mph 88% 0.00 in
23:14 27.3 °F 24.5 °F 29.71 in East 2.0 mph 8.0 mph 89% 0.00 in
23:19 27.3 °F 24.5 °F 29.70 in NE 4.0 mph 8.0 mph 89% 0.00 in
23:20 27.3 °F 24.5 °F 29.70 in NNE 4.0 mph 7.0 mph 89% 0.00 in
23:24 27.3 °F 24.5 °F 29.70 in NE 4.0 mph 7.0 mph 89% 0.00 in
23:29 27.2 °F 24.4 °F 29.70 in NE 4.0 mph 8.0 mph 89% 0.00 in
23:34 27.3 °F 24.5 °F 29.69 in NE 3.0 mph 8.0 mph 89% 0.00 in
23:39 27.2 °F 24.4 °F 29.69 in NE 2.0 mph 7.0 mph 89% 0.00 in
23:44 27.2 °F 24.4 °F 29.68 in NE 3.0 mph 7.0 mph 89% 0.00 in
23:49 27.2 °F 24.4 °F 29.68 in NE 2.0 mph 5.0 mph 89% 0.00 in
23:54 27.2 °F 24.4 °F 29.67 in NE 2.0 mph 5.0 mph 89% 0.00 in
23:59 27.2 °F 24.4 °F 29.67 in ENE 2.0 mph 5.0 mph 89% 0.00 in
Buffalo, New York, USA
Compliments of Weather Underground - 2.5 mb